Florida AWOS List, Phone Numbers

USA |  
| Search AWOS

Rocky Mountain States: Montana | Wyoming | Colorado | New Mexico

Complete weather reports: Florida

Legend: KFNL = METAR available Follow your local AWOS on AV Mobile = METAR available on AV Mobile
Station Florida Location Frequency Phone
KAQQICAO ID KAQQ Apalachicola, Apalachicola
KNAEICAO ID KNAE Astor, Bombing Range Detachment Astor
KAGRFAA ID AGR Avon Park Gunnery Range
F95FAA ID F95, AWOS-AV, KTEX 070640Z AUTO 15005KT 10SM CLR 02/M16 A3038 RMK AO2 T00201164 Follow  on AV Mobile BLOUNTSTOWN 119.350 850-674-1347
K1J0FAA ID 1J0, K1J0 061458Z AUTO 00000KT 10SM FEW025 SCT042 28/22 A3020 RMK AO2 SLP184 T02780217 50006 Follow K1J0 on AV Mobile TRI COUNTY AIRPORT
K1J4ICAO ID K1J4 Cape San Blas Coast Guard Station
KNZCICAO ID KNZC Cecil, Naval Air Station
2ISFAA ID 2IS, AWOS-3, KTEX 070640Z AUTO 15005KT 10SM CLR 02/M16 A3038 RMK AO2 T00201164 Follow  on AV Mobile CLEWISTON 124.175 863-983-7020
KX53ICAO ID KX53 Clewiston
KCOFFAA ID COF, KCOF 061458Z AUTO VRB02KT 7SM CLR 29/20 A3019 RMK AO2 SLP228 T02900195 51012 $ Follow KCOF on AV Mobile Cocoa / Patrick Air Force Base
KXMRFAA ID XMR, KXMR 061458Z AUTO VRB02KT 10SM CLR 28/23 A3018 RMK AO2 SLP223 T02810227 50011 $ Follow KXMR on AV Mobile Cocoa Beach, Cape Canaveral Air Force Station Skid Strip
KEGIFAA ID EGI, KEGI 061455Z 32006KT 10SM FEW025 BKN180 BKN240 26/21 A3019 RMK AO2A SLP224 T02620205 50008 $ Follow KEGI on AV Mobile Duke Field / Eglin Auxiliary
KCTYFAA ID CTY, KCTY 061453Z AUTO 27006KT 31/23 A3019 Follow KCTY on AV Mobile CROSS CITY AIRPORT
54JFAA ID 54J, AWOS-3P, KTEX 070640Z AUTO 15005KT 10SM CLR 02/M16 A3038 RMK AO2 T00201164 Follow  on AV Mobile DEFUNIAK SPRINGS 118.725 850-892-0147
KDTSFAA ID DTS, ASOS, KDTS 061453Z AUTO 33005KT 10SM CLR 28/22 A3019 RMK AO2 SLP224 T02780222 50013 TSNO Follow KDTS on AV Mobile DESTIN-FT WALTON BEACH AIRPORT 133.925 850-654-7128
KX91ICAO ID KX91 Egmont Key Coast Guard Station
KFHBFAA ID FHB, AWOS-3, KFHB 061515Z AUTO 31005KT 10SM CLR 30/21 A3018 RMK AO1 Follow KFHB on AV Mobile FERNANDINA BEACH 118.075 904-277-7323
KFXEFAA ID FXE, ASOS, KFXE 061453Z 14010KT 10SM SCT031 SCT046 31/23 A3017 Follow KFXE on AV Mobile FORT LAUDERDALE EXECUTIVE 954-772-2537
KFLLFAA ID FLL, ASOS, KFLL 061453Z 12009KT 10SM FEW028 SCT250 31/24 A3017 Follow KFLL on AV Mobile FORT LAUDERDALE/HOLLYWOOD 954-359-7857
KFMYFAA ID FMY, ASOS, KFMY 061453Z 05005KT 10SM CLR 29/23 A3019 RMK AO2 SLP224 T02890233 51010 Follow KFMY on AV Mobile FORT MYERS PAGE FIELD 239-936-2318
KRSWFAA ID RSW, ASOS, KRSW 061453Z 08004KT 10SM CLR 28/23 A3019 Follow KRSW on AV Mobile FORT MYERS SW FL INTERNATIONAL AIRPORT 239-561-0966
KX82ICAO ID KX82 Fort Pierce Coast Guard Station
KFPRFAA ID FPR, ASOS, KFPR 061453Z 08003KT 10SM CLR 29/23 A3019 Follow KFPR on AV Mobile FORT PIERCE ST LUCIE 772-489-4281
KX86ICAO ID KX86 Fowey Rocks Coast Guard Station
KX89ICAO ID KX89 Ft. Myers Beach Coast Guard Station
KGNVFAA ID GNV, ASOS, KGNV 061453Z 30009KT 10SM CLR 29/21 A3020 Follow KGNV on AV Mobile GAINESVILLE REGIONAL AIRPORT 352-335-8672
KHWOFAA ID HWO, ASOS, KHWO 061453Z 10009KT 10SM FEW036 FEW046 32/23 A3018 RMK AO2 SLP220 T03170228 53007 Follow KHWO on AV Mobile HOLLYWOOD NORTH PERRY AIRPORT 954-983-5904
X51FAA ID X51, AWOS-3, KTEX 070640Z AUTO 15005KT 10SM CLR 02/M16 A3038 RMK AO2 T00201164 Follow  on AV Mobile HOMESTEAD 118.375 (305) 247-2791
KHSTFAA ID HST, KHST 061458Z AUTO 10007KT 10SM FEW030 31/24 A3017 RMK AO2 SLP220 T03120237 52018 Follow KHST on AV Mobile Homestead Air Force Base
KIMMFAA ID IMM, AWOS-3, KIMM 161355Z AUTO 10007KT FEW016 A3015 RMK A01 P000 Follow KIMM on AV Mobile IMMOKALEE 118.525 239-657-2038
KINFFAA ID INF, AWOS-3, KINF 061515Z AUTO 00000KT 5SM HZ CLR A3019 RMK AO2 Follow KINF on AV Mobile INVERNESS 119.975 352-341-0264
KX84ICAO ID KX84 Islamorada Coast Guard Station
KHEGFAA ID HEG, AWOS-3 JACKSONVILLE 119.275 904-695-0334
KJAXFAA ID JAX, ASOS, KJAX 061456Z 32009KT 10SM FEW020 FEW100 SCT250 28/21 A3018 Follow KJAX on AV Mobile JACKSONVILLE INTERNATIONAL 904-741-4304
KNIPFAA ID NIP, KNIP 061453Z 30009KT 10SM FEW040 FEW250 30/20 A3019 RMK AO2 SLP219 T03000200 $ Follow KNIP on AV Mobile JACKSONVILLE NAVAL AIR STN
KVQQFAA ID VQQ, AWOS-3, KVQQ 061450Z 32007KT 10SM CLR 28/22 A3019 Follow KVQQ on AV Mobile Jacksonville, Cecil Field Airport 125.275 904-778-6934
KNENFAA ID NEN NOLF WHITEHOUSE FIELD, FL
KX80ICAO ID KX80 Jupiter Inlet Coast Guard Station
KEYWFAA ID EYW, ASOS, KEYW 061453Z 12007KT 10SM SCT025 BKN037 31/26 A3017 Follow KEYW on AV Mobile KEY WEST INTERNATIONAL AIRPORT 119.65 305-292-4046
KNQXFAA ID NQX, KNQX 061453Z 13006KT 9SM SCT022 BKN044 BKN250 32/24 A3016 RMK AO2 SLP213 T03170239 53022 $ Follow KNQX on AV Mobile KEY WEST NAVAL AIR STATION
K42JFAA ID 42J, AWOS-3, K42J 061515Z AUTO 31007KT 10SM CLR 29/22 A3020 RMK AO1 TSNO Follow K42J on AV Mobile KEYSTONE HEIGHTS 124.275 352-473-8273
KLCQFAA ID LCQ, AWOS-3, KLCQ 061515Z AUTO 29005KT 10SM SCT028 28/23 A3020 RMK AO2 Follow KLCQ on AV Mobile LAKE CITY 120.675 386-754-9366
X07FAA ID X07, AWOS-3, KTEX 070640Z AUTO 15005KT 10SM CLR 02/M16 A3038 RMK AO2 T00201164 Follow  on AV Mobile LAKE WALES 124.225 863-678-1334
KX81ICAO ID KX81 Lake Worth Inlet
KLALFAA ID LAL, AWOS-3PT, KLAL 061455Z 00000KT 10SM SCT250 29/22 A3020 Follow KLAL on AV Mobile Lakeland Regional 118.025 863-834-2030
KLEEFAA ID LEE, ASOS, KLEE 061453Z 17004KT 10SM CLR 28/23 A3021 RMK AO2 SLP227 T02830228 51014 Follow KLEE on AV Mobile LEESBURG REGIONAL AIRPORT 134.325 352-787-1565
24JFAA ID 24J, AWOS-3, KTEX 070640Z AUTO 15005KT 10SM CLR 02/M16 A3038 RMK AO2 T00201164 Follow  on AV Mobile LIVE OAK 118.225 386-362-1731
KX88ICAO ID KX88 Marathon Coast Guard Station
KMTHFAA ID MTH, ASOS, KMTH 061453Z AUTO 11005KT 9SM SCT024 BKN032 31/26 A3016 RMK AO2 SLP211 T03110256 53019 Follow KMTH on AV Mobile MARATHON AIRPORT 135.525 305-743-8373
KMKYFAA ID MKY, AWOS-3, KMKY 061515Z AUTO 05004KT 10SM CLR 30/23 A3018 RMK AO1 Follow KMKY on AV Mobile MARCO ISLAND 120.075 239-394-8187
KMAIFAA ID MAI, ASOS, KMAI 061453Z AUTO 33005KT 10SM CLR 26/22 A3020 RMK AO2 SLP224 60000 T02610217 50010 Follow KMAI on AV Mobile MARIANNA MUNICIPAL AIRPORT 133.525 850-482-6082
KHRTFAA ID HRT, KHRT 061458Z AUTO 31006KT 10SM FEW160 28/20 A3018 RMK AO2 LTG DSNT SE SLP221 T02800200 50010 $ Follow KHRT on AV Mobile Hurlburt Field
KNRBFAA ID NRB, KNRB 061452Z 32006KT 10SM FEW025 SCT250 28/21 A3019 RMK AO2 SLP221 T02830211 51012 $ Follow KNRB on AV Mobile MAYPORT NAVAL AIR FACILITY
KMLBFAA ID MLB, ASOS, KMLB 061453Z VRB03KT 10SM CLR 29/18 A3019 Follow KMLB on AV Mobile MELBOURNE INTERNATIONAL 321-723-7403
KTNTFAA ID TNT, AWOS-3 MIAMI 119.075 (239) 695-9198
KX87ICAO ID KX87 Miami Beach Coast Guard Station
KAMXICAO ID KAMX Miami Nexrad
KTMBFAA ID TMB, ASOS, KTMB 061453Z 12004KT 10SM FEW033 BKN045 31/23 A3017 Follow KTMB on AV Mobile KENDALL-TAMIAMI EXEC AIRPORT 305-235-1332
KMIAFAA ID MIA, ASOS, KMIA 061453Z 10SM SCT030 BKN250 30/23 A3018 Follow KMIA on AV Mobile MIAMI INTERNATIONAL AIRPORT 305-870-0235
KOPFFAA ID OPF, KOPF 061453Z 10009KT 10SM CLR 32/23 A3017 Follow KOPF on AV Mobile MIAMI OPA LOCKA AIRPORT
KNFJFAA ID NFJ CHOCTAW, WHITING FIELD, NOLF
KNSEFAA ID NSE, KNSE 061456Z 30005KT 10SM FEW025 FEW080 BKN140 BKN250 25/20 A3020 RMK AO2 SLP212 T02500200 $ Follow KNSE on AV Mobile MILTON WHITING FIELD (NORTH)
KNDZFAA ID NDZ, KNDZ 061456Z 32004KT 10SM FEW025 BKN140 BKN250 27/21 A3020 RMK AO2 SLP212 T02670206 50009 $ Follow KNDZ on AV Mobile MILTON WHITING FIELD (SOUTH)
KRRFICAO ID KRRF New Port Richey, Tampa Bay Executive Airport
KEVBFAA ID EVB, AWOS-3, KEVB 061450Z 06004KT 10SM FEW015 28/22 A3021 Follow KEVB on AV Mobile New Smyrna Beach, New Smyrna Beach Municipal Airport 124.625 386-409-4705
KOCFFAA ID OCF, AWOS-3, KOCF 061450Z 26006KT 10SM SCT025 29/23 A3019 Follow KOCF on AV Mobile Ocala, Ocala International Airport-Jim Taylor Field 128.125 352-237-8525
KOBEFAA ID OBE, AWOS-3, KOBE 061515Z AUTO 00000KT 10SM CLR 28/22 A3021 RMK AO2 Follow KOBE on AV Mobile Okeechobee County Airport 118.675 863-467-1148
KORLFAA ID ORL, ASOS, KORL 061453Z VRB03KT 10SM CLR 29/23 A3020 RMK AO2 SLP227 T02890228 51009 Follow KORL on AV Mobile ORLANDO EXECUTIVE AIRPORT 407-658-6753
KMCOFAA ID MCO, ASOS, KMCO 061453Z 24004KT 10SM FEW180 FEW280 29/22 A3019 Follow KMCO on AV Mobile ORLANDO INTERNATIONAL AIRPORT 407-855-5235
KSFBFAA ID SFB, ASOS, KSFB 061453Z 00000KT 10SM CLR 27/22 A3019 Follow KSFB on AV Mobile ORLANDO SANFORD AIRPORT 407-321-9384
KISMFAA ID ISM, AWOS-3, KISM 061450Z 19006KT 10SM SKC 29/22 A3020 Follow KISM on AV Mobile Orlando, Kissimmee Municipal Airport 128.775 407-847-0533
KOMNFAA ID OMN, AWOS-3, KOMN 061450Z 00000KT 7SM FEW017 27/23 A3019 Follow KOMN on AV Mobile Ormond Beach, Ormond Beach Municipal Airport 118.475 386-615-7084
28JFAA ID 28J, AWOS-3, KTEX 070640Z AUTO 15005KT 10SM CLR 02/M16 A3038 RMK AO2 T00201164 Follow  on AV Mobile PALATKA 119.92 386-312-2212
KXFLFAA ID XFL, AWOS-3, KXFL 132150Z VRB03KT 7SM CLR 21/18 A2999 Follow KXFL on AV Mobile PALM COAST 128.325 386-437-7334
KECPFAA ID ECP, ASOS, KECP 061453Z 32004KT 10SM SCT024 SCT034 28/23 A3018 Follow KECP on AV Mobile PANAMA CITY 119.975 850-235-7857
KPFNICAO ID KPFN, KPFN 030253Z VRB03KT 10SM FEW023 25/23 A2989 Follow KPFN on AV Mobile PANAMA CITY-BAY CTY INTERNATIONAL
KPAMFAA ID PAM, KPAM 061512Z AUTO 23005KT 7SM -RA VCTS FEW036 29/23 A3019 RMK AO2 LTG DSNT S-SW RAB12 Follow KPAM on AV Mobile Tyndall Air Force Base
KPNSFAA ID PNS, ASOS, KPNS 061453Z 32006KT 10SM CLR 26/20 A3020 Follow KPNS on AV Mobile PENSACOLA REGIONAL AIRPORT 850-436-4799
KNPAFAA ID NPA, KNPA 061456Z 33007KT 10SM BKN140 OVC250 28/21 A3019 RMK AO2 SLP225 T02780206 50013 $ Follow KNPA on AV Mobile Pensacola, Naval Air Station
K40JFAA ID 40J, AWOS-3PT, K40J 061515Z AUTO 29004KT 10SM CLR 30/22 A3020 RMK AO2 T02990220 Follow K40J on AV Mobile PERRY-FOLEY AIRPORT 118.375 850-838-3526
FA54FAA ID FA54, Belfort CORAL CREEK
KPCMFAA ID PCM, AWOS-3, KPCM 061515Z AUTO 00000KT 10SM CLR 31/22 A3022 RMK AO2 Follow KPCM on AV Mobile Plant City, Plant City Municipal Airport 120.025 813-764-8259
KPMPFAA ID PMP, ASOS, KPMP 061453Z 16007KT 8SM FEW024 31/24 A3017 RMK AO2 SLP218 T03110239 51013 Follow KPMP on AV Mobile POMPANO BEACH AIRPARK 954-783-3720
K1J3ICAO ID K1J3 Ponce De Leon Inlet
KPGDFAA ID PGD, ASOS, KPGD 061453Z AUTO 16007KT 10SM CLR 29/23 A3020 RMK AO2 SLP227 T02940233 50010 Follow KPGD on AV Mobile PUNTA GORDA CHARLOTTE COUNTY 135.675 941-639-0076
K1J5ICAO ID K1J5 Santa Rosa Coast Guard Station
KSRQFAA ID SRQ, ASOS, KSRQ 061453Z AUTO 18008KT 10SM SCT024 30/24 A3017 Follow KSRQ on AV Mobile SARASOTA/BRADENTON INTERNATIONAL . 124.375 941-359-0117
KSEFFAA ID SEF, AWOS-3 SEBRING 119.475 863-655-6424
KSGJFAA ID SGJ, AWOS-3, KSGJ 061458Z AUTO 34004KT 10SM FEW022 28/22 A3020 RMK AO2 SLP226 T02830222 51013 Follow KSGJ on AV Mobile St. Augustine, St. Augustine Airport 904-824-7084
KPIEFAA ID PIE, ASOS, KPIE 061453Z 07009KT 10SM SCT028 29/24 A3018 Follow KPIE on AV Mobile ST PETERSBURG/CLEARWATER 727-531-3456
KSPGFAA ID SPG, ASOS, KSPG 061453Z 15005KT 10SM CLR 29/23 A3017 RMK AO2 SLP217 T02890233 51014 Follow KSPG on AV Mobile ST PETERSBURG WHITTED AIRPORT 118.875 727-821-4334
KSUAFAA ID SUA, AWOS-3, KSUA 061447Z 00000KT 7SM FEW025 28/21 A3020 Follow KSUA on AV Mobile Stuart, Witham Field Airport 772-692-7399
KTLHFAA ID TLH, ASOS, KTLH 061453Z VRB06KT 10SM FEW024 BKN070 BKN250 28/22 A3020 Follow KTLH on AV Mobile TALLAHASSEE REGIONAL AIRPORT 850-576-3665
KTBWICAO ID KTBW Tampa Bay Area
KMCFFAA ID MCF, KMCF 061458Z AUTO 20004KT 10SM FEW200 29/25 A3019 RMK AO2 SLP226 T02940246 52014 Follow KMCF on AV Mobile Macdill Air Force Base, Fl.
KTPAFAA ID TPA, ASOS, KTPA 061453Z COR 17005KT 10SM FEW024 SCT200 30/23 A3019 Follow KTPA on AV Mobile TAMPA INTERNATIONAL AIRPORT 813-873-7228
KTPFFAA ID TPF, AWOS-3, KTPF 061515Z AUTO 20003KT 10SM CLR 31/23 A3019 RMK AO2 Follow KTPF on AV Mobile Tampa, Peter O Knight Airport 118.925 813-251-6824
KVDFFAA ID VDF, AWOS-3, KVDF 061515Z AUTO 18003KT 10SM CLR A3020 RMK AO2 Follow KVDF on AV Mobile Tampa, Vandenberg Airport 121.125 813-630-0924
KVLGICAO ID KVLG The Villages
KVVGICAO ID KVVG, KVVG 061515Z AUTO 35003KT 7SM A3009 RMK A01 Follow KVVG on AV Mobile The Villages
KX68ICAO ID KX68 Titusville, NASA Shuttle Landing Facility
KTIXFAA ID TIX, KTIX 061455Z 09005KT 7SM SCT120 29/22 A3020 Follow KTIX on AV Mobile Titusville
KX21FAA ID X21, AWOS-3 Titusville, Arthur Dunn Air Park 119.725 321-385-0383
KTTSFAA ID TTS, KTTS 061458Z AUTO VRB01KT 10SM FEW210 28/21 A3018 RMK AO2 SLP224 T02780210 50010 $ Follow KTTS on AV Mobile Titusville, NASA Shuttle Landing Facility
KVPSFAA ID VPS, KVPS 061457Z 36003KT 10SM SCT019 BKN120 BKN150 BKN190 27/21 A3019 RMK AO2A LTG DSNT S SLP229 T02720214 50010 $ Follow KVPS on AV Mobile Valparaiso / Eglin Air Force Base
KVNCFAA ID VNC, AWOS-3, KVNC 061455Z AUTO 21004KT 10SM CLR 30/24 A3019 RMK AO2 Follow KVNC on AV Mobile VENICE 119.275
KX90ICAO ID KX90 Venice Long Range Navigation
KVRBFAA ID VRB, ASOS, KVRB 061453Z 12004KT 10SM CLR 31/21 A3019 Follow KVRB on AV Mobile VERO BEACH MUNICIPAL AIRPORT 772-978-9535
F45FAA ID F45, AWOS-3, KTEX 070640Z AUTO 15005KT 10SM CLR 02/M16 A3038 RMK AO2 T00201164 Follow  on AV Mobile WEST PALM BEACH 119.975 561-630-6932
KLNAFAA ID LNA, AWOS-3 WEST PALM BEACH 119.925 561-964-0308
KPBIFAA ID PBI, ASOS, KPBI 061453Z 14005KT 10SM SCT028 BKN210 30/23 A3019 Follow KPBI on AV Mobile PALM BEACH INTERNATIONAL 123.75 561-683-2548
FD38FAA ID FD38, Belfort WELLINGTON AERO CLUB
X60FAA ID X60, AWOS-3, KTEX 070640Z AUTO 15005KT 10SM CLR 02/M16 A3038 RMK AO2 T00201164 Follow  on AV Mobile WILLISTON 118.425 352-528-9949
KGIFFAA ID GIF, ASOS, KGIF 061453Z AUTO 21004KT 10SM CLR 29/21 A3021 RMK AO2 SLP227 T02890211 50010 TSNO Follow KGIF on AV Mobile WINTER HAVENS GILBERT AIRPORT 133.675 863-956-2097
KZPHFAA ID ZPH, ASOS, KZPH 061515Z AUTO 00000KT 10SM CLR 29/21 A3020 RMK AO2 Follow KZPH on AV Mobile ZEPHYRHILLS 118.975 813-780-0031

Click on the AV Mobile icon AV Mobile icon by any station to follow that AWOS feed on AirportView.net Mobile.

Garmin aera 796 $1999 at Avionics Specialists LLC
Bose A20 Aviation Headsets $995 at Avionics Specialists LLC